events-overview

Kinetic Sprint

 

Overall Women

Lake Anna State Park - Spotsylvania, VA 5/13/2012 09:00AM

** Results are for the private use of participants and are the Intellectual Property of Set Up Events. Unauthorized use of these results is prohibited.

Place Bib Ag S NAME city/state DQ Rank SWIM Rank T1 Rank BIKE Rank T2 Rank RUN PENALTY TIME DQ
111731FMolly RoohiKing George VA 1500:12:17200:01:37200:48:47800:00:48200:20:03 01:23:31 
236228FErin CutrellRaleigh NC 100:09:451300:01:54300:49:045700:01:121400:22:11 01:24:04 
329134FSamantha BirdBurke VA 400:10:581200:01:53500:49:26400:00:421100:21:54 01:24:52 
4529FElizabeth McGrathArlington VA 800:11:471400:01:55600:50:17500:00:43800:21:19 01:26:00 
56224FEdith NaultPoquoson VA 2000:12:43100:01:33400:49:07200:00:391200:22:09 01:26:09 
653827FJennifer LeeheyWashington DC 900:11:55700:01:481000:51:172000:00:57700:21:17 01:27:11 
7643FJuliet AdamsVirginia Beach VA 1400:12:101000:01:531200:51:252400:00:591500:22:14 01:28:39 
822539FRobin WitlinOak Hill VA 1700:12:294700:02:271500:51:524100:01:06600:21:06 01:28:57 
9747FConnie PetersonHarrisonburg VA 1200:12:061900:02:01700:50:297700:01:164400:24:27 01:30:17 
1044134FKarine Grand'maisonMontreal XX 2400:12:51600:01:471400:51:502800:01:002100:22:53 01:30:19 
1122241FSusan WinkloskyAshburn VA 4900:13:542900:02:13800:50:293500:01:033000:23:35 01:31:11 
129440FStephanie ProssCulpeper VA 1000:11:572800:02:111100:51:203200:01:025000:24:53 01:31:21 
1316833FKatie SteadmanWinchester VA 3700:13:312300:02:061300:51:373300:01:022400:23:14 01:31:29 
142645FLeanne McAllisterLeesburg VA 5100:13:57800:01:491600:52:13600:00:452300:23:08 01:31:51 
1537918FKathleen DodsonSpringfield VA 200:10:06300:01:375200:56:581200:00:511900:22:43 01:32:14 
1652734FFaith KorbelArlington VA 1800:12:3417500:04:012800:54:426900:01:15400:20:11 01:32:41 
1720228FVanessa WaigandAnnandale VA 9200:15:313100:02:15900:50:535000:01:092900:23:33 01:33:18 
1836141FCarol CurreySpringfield VA 1600:12:259100:02:556100:57:235300:01:11300:20:08 01:34:00 
191531FPatrizia ManessArlington VA 7300:14:512500:02:082100:53:152700:01:002000:22:50 01:34:01 
2023843FDarcy YtterdahlOakton VA 2200:12:474500:02:252400:53:464800:01:083800:24:01 01:34:06 
2110432FBronwen RiceWashington DC 2500:12:572400:02:072700:54:331100:00:513200:23:40 01:34:06 
222316FMaddie MatarazzoPottstown PA 700:11:421500:01:553600:55:331000:00:514300:24:25 01:34:25 
233349FKatherine McKnightFairfax VA 7600:14:563400:02:161700:52:337100:01:152800:23:28 01:34:26 
2459533FValerie OswaldCharlottesville VA 300:10:071600:01:563300:55:145500:01:117300:26:03 01:34:29 
2514832FEmily SiegelWashington DC 2900:13:042200:02:032600:54:071500:00:534800:24:43 01:34:48 
2647826FSonja HinishArlington VA 9100:15:307000:02:394600:56:281800:00:55100:19:45 01:35:15 
2733231FMegan CarneyArlington VA 3800:13:356600:02:353000:54:498100:01:183600:23:53 01:36:08 
2812127FCatherine RowanFairfax VA 600:11:212100:02:033900:55:448000:01:186700:25:47 01:36:11 
2930232FCortney BoyceSpringfield VA 11100:16:0010300:03:022300:53:3610900:01:301800:22:39 01:36:45 
3026031FEmily AshleyChesterfield VA 2700:13:022700:02:114200:55:584000:01:054900:24:50 01:37:04 
PlaceBibAgSNAMEcity/stateDQRankSWIMRankT1RankBIKERankT2RankRUNPENALTYTIMEDQ
3116935FSabrina Steele WilliamsonTroy VA 6900:14:456200:02:332000:53:113800:01:056900:25:54 01:37:26 
3254025FJessica LehmanFredericksburg VA 4500:13:441800:01:573100:54:502600:01:007100:26:00 01:37:29 
3319532FBurcu UzerWashington DC 8200:15:183500:02:173400:55:184200:01:064100:24:09 01:38:06 
3417552FShari SturmMcLean VA 3000:13:054000:02:221800:52:4414900:01:4511700:28:22 01:38:15 
3553043FValerie KramerPenn Laird VA 7900:15:10900:01:514900:56:471400:00:533500:23:47 01:38:26 
3627756FElizabeth BaumgartenAldie VA 7400:14:534600:02:272200:53:1813200:01:374700:24:3900:02:0001:38:52 
3736427FBrielle DanaRockville MD 3300:13:1710200:03:013500:55:2112800:01:373700:23:5400:02:0001:39:08 
3847638FLaura HillNorfolk VA 5300:14:006000:02:324000:55:523000:01:026800:25:52 01:39:15 
3948151FMelanie HoffFalls Church VA 5700:14:267300:02:404100:55:522100:00:585800:25:20 01:39:15 
4025036FKanchani AlgamaWashington DC 4700:13:507500:02:425700:57:127500:01:164600:24:34 01:39:32 
4129727FKate BossangeWashington DC 8900:15:273600:02:199100:59:492900:01:00900:21:21 01:39:54 
428034FDiana ParzikAlexandria VA 4200:13:4014600:03:352500:53:5212100:01:359800:27:15 01:39:56 
435553FAngel MoyerGlen Allen VA 3400:13:208700:02:493800:55:382500:00:5910200:27:20 01:40:04 
4415047FAlison SimonWashington DC 10400:15:525600:02:302900:54:471300:00:527600:26:15 01:40:14 
454829FElizabeth MooreBlacksburg VA 2300:12:48500:01:467700:58:35300:00:418600:26:40 01:40:29 
4654335FKathy LettBurke VA 6800:14:436400:02:335500:57:055800:01:125100:24:58 01:40:30 
4720124FHillary WagstaffDurham NC 5200:13:593800:02:209701:00:18700:00:472500:23:15 01:40:37 
482554FConnie MaxwellNewport News VA 6500:14:388400:02:471900:52:566700:01:1413000:29:06 01:40:39 
4937132FKarly DeckerRockville MD 4600:13:457800:02:454400:56:058300:01:209000:26:55 01:40:47 
501340FJennifer MallardMcLean VA 1300:12:092600:02:088200:59:0511400:01:318200:26:24 01:41:15 
5139631FKristen FagleyWashington DC 500:11:209300:02:569501:00:1013600:01:396200:25:29 01:41:30 
5240733FJaime FloodWashington DC 15200:18:115500:02:298300:59:059900:01:25500:20:33 01:41:42 
5324328FJessica ZimmerHagerstown MD 4400:13:424100:02:2311101:01:154600:01:082700:23:27 01:41:53 
5442127FSarah GansleinWashington DC 6600:14:415300:02:296800:57:5614600:01:425600:25:09 01:41:55 
5520626FJennifer WeaverChantilly VA 2600:12:599900:02:5810201:00:40100:00:385500:25:06 01:42:18 
5638150FSherry DowdyFredericksburg VA 6100:14:325700:02:316700:57:554300:01:069100:26:56 01:42:58 
5717638FLisa SullivanHollywood MD 5500:14:169700:02:578800:59:206500:01:135700:25:15 01:42:59 
5816237FLisa SoronenAlexandria VA 8400:15:204200:02:246400:57:435100:01:108500:26:33 01:43:08 
5935330FCaitlin ConoverArlington VA 10500:15:5412000:03:146200:57:3711200:01:305300:25:03 01:43:16 
6035035FMeredith ColginAshburn VA 9300:15:328100:02:465600:57:0820300:02:296100:25:27 01:43:21 
6130528FAdrianne BrakefieldWashington Dc DC 7500:14:536100:02:325800:57:137200:01:1510600:27:45 01:43:37 
PlaceBibAgSNAMEcity/stateDQRankSWIMRankT1RankBIKERankT2RankRUNPENALTYTIMEDQ
6249144FLaura JacksonArlington VA 12000:16:2017400:04:008900:59:2514500:01:421700:22:33 01:43:57 
6350945FBecky KendallOak Hill VA 13700:16:599200:02:566500:57:525200:01:106000:25:24 01:44:18 
6418428FKate ThomasArlington VA 5000:13:573900:02:207900:58:4411900:01:3410700:27:47 01:44:19 
6525843FEmily ArmstrongRockville MD 14300:17:298300:02:474300:56:013700:01:049500:27:03 01:44:22 
6642339FRosanne GarveyManassas VA 4800:13:538600:02:4910101:00:335400:01:117200:26:00 01:44:24 
6744830FRena GreifingerWashington DC 9800:15:3817100:03:589801:00:228500:01:202600:23:19 01:44:35 
6828126FAshley BeddingfieldGloucester VA 7200:14:5111000:03:0512801:02:4914400:01:421300:22:11 01:44:35 
6913136FZoya SchallerReston VA 4000:13:3711300:03:068600:59:1317500:02:018700:26:41 01:44:36 
7025637FKimberly ArbouwRoanoke VA 16000:18:41400:01:465100:56:573900:01:057900:26:18 01:44:45 
7151419FKarley KendrickMontclair VA 3600:13:306800:02:3713801:03:227600:01:163900:24:05 01:44:48 
7211441FSarah RodriguezWheaton MD 7800:15:053700:02:208500:59:136600:01:139300:27:00 01:44:49 
7354427FJohanna LewisVirginia Beach VA 4100:13:3910700:03:0510801:01:064400:01:078100:26:22 01:45:17 
7459229FHeather KloeppingRichmond VA 17500:19:2014000:03:295400:57:0515600:01:493100:23:36 01:45:17 
7526254FMarjorie AuerAlexandria VA 5600:14:235100:02:284800:56:405600:01:1215700:30:57 01:45:37 
767340FPauline OwenKing George VA 13000:16:3810100:03:008000:58:5012700:01:376500:25:42 01:45:46 
7751215FKara KendallOak Hill VA 8600:15:2515900:03:4614301:03:3117000:01:591000:21:26 01:46:05 
784123FAmy MiaoNorth Potomac MD 6700:14:426500:02:3411301:01:266200:01:138300:26:25 01:46:19 
7943827FSarah GorntoWashington DC 16900:19:0510400:03:034500:56:201900:00:569200:26:59 01:46:21 
8059031FAdriana AndersonWoodbridge VA 13900:17:0813100:03:216600:57:5419600:02:187400:26:04 01:46:44 
8158342FChristina MitchellCollegeville PA 11900:16:1910800:03:057100:58:017900:01:1811300:28:14 01:46:55 
8238940FKim EllisVienna VA 6000:14:315400:02:293200:55:0815400:01:4817500:33:07 01:47:02 
8325533FBethany AquilinaWashington DC 16800:19:0310000:02:5911201:01:199300:01:241600:22:27 01:47:10 
8414214FLindsay SerresSpringfield VA 2100:12:444400:02:2510501:00:539600:01:2514300:29:47 01:47:12 
8510331FRebecca ReutlingerAlexandria VA 7700:15:0215000:03:3712901:02:509400:01:244200:24:24 01:47:16 
8642743FColleen GilesWoodbridge VA 11600:16:1013200:03:217300:58:107400:01:1512100:28:29 01:47:24 
8716028FMolly SmithArlington VA 9400:15:345900:02:3213501:03:076800:01:145400:25:05 01:47:29 
8839227FCaroline EnglishWashington DC 3200:13:1612600:03:1613701:03:124900:01:099400:27:01 01:47:52 
8915744FBecky SmithLaurel MD 11000:15:5812400:03:167200:58:087800:01:1613300:29:17 01:47:54 
905135FArianna StyglesWashington DC 9900:15:399800:02:5712601:02:3710400:01:276400:25:35 01:48:14 
9130646FNemo (Helen) BrauchNags Head NC 12600:16:276900:02:387400:58:1412600:01:3613500:29:22 01:48:15 
9239134FNikki ElstonWashington DC 13200:16:427400:02:4214501:03:3710800:01:294000:24:08 01:48:35 
PlaceBibAgSNAMEcity/stateDQRankSWIMRankT1RankBIKERankT2RankRUNPENALTYTIMEDQ
9318049FMargo TankBethesda MD 15100:18:0711400:03:076300:57:4015700:01:4910800:27:55 01:48:36 
9427458FMaggie BartlettBoyds MD 9000:15:2812200:03:147800:58:398200:01:1914700:30:00 01:48:39 
9536740FEmilie DavidAlexandria VA 13800:17:0011200:03:069401:00:0713000:01:379900:27:15 01:49:03 
9616634FSpring StangerRichmond VA 19200:20:4011600:03:117000:57:588700:01:217500:26:13 01:49:21 
9718936FChristina TragleLeesburg VA 13300:16:507700:02:4410001:00:296000:01:1211400:28:14 01:49:28 
9818635FChristine ThurberWashington DC 13500:16:5811100:03:0513001:02:5311800:01:345200:24:59 01:49:28 
9929431FKate BloodFalls Church VA 5900:14:305000:02:289901:00:2713700:01:3915500:30:43 01:49:45 
1005924FMaria MuscaraArlington VA 6300:14:3518500:04:1515401:04:381700:00:546300:25:32 01:49:52 
10119842FKelly VelasquezSilver Spring MD 2800:13:0218300:04:127600:58:2719000:02:1116500:32:04 01:49:55 
10212425FSara RubinWashington DC 13100:16:3913800:03:289200:59:5221100:02:529600:27:08 01:49:57 
1031042FLisa MackemReston VA 18600:20:0212500:03:164700:56:3515500:01:4811800:28:22 01:50:02 
1047228FLeah OttenAlexandria VA 15800:18:362000:02:0210701:01:016100:01:1310100:27:18 01:50:07 
10525239FKelly AndersonQuantico VA 8700:15:2616500:03:5511801:01:3920700:02:348800:26:42 01:50:15 
10653143FSharon KroszkewiczAlexandria VA 16300:18:509500:02:568100:58:529500:01:2411900:28:26 01:50:27 
10758934FChristina HoggattArlington VA 10300:15:525200:02:285000:56:4811500:01:3218600:34:09 01:50:48 
10834553FVictoria ClarkStafford VA 10800:15:589000:02:548400:59:108900:01:2213800:29:3200:02:0001:50:54 
10934127FRosanna ChapmanVirginia Beach VA 12300:16:233000:02:1317001:06:492200:00:584500:24:34 01:50:56 
11023225FJessica WybengaRockville MD 14700:17:5619700:04:3513201:03:0416800:01:573300:23:40 01:51:10 
1111436FDonna MalpeliAshburn VA 16100:18:4515400:03:4012001:02:0410100:01:265900:25:23 01:51:15 
11248539FLeslie HutchensHerndon VA 17400:19:208800:02:506900:57:5613400:01:3814000:29:41 01:51:22 
11328026FKaitlin BeckWashington DC 3900:13:371100:01:5315601:04:515900:01:1214500:29:56 01:51:27 
1143734FSarah MenonArlington VA 15000:18:0614400:03:349000:59:4511000:01:3012300:28:41 01:51:33 
11517326FCoryell StoutWyndmoor PA 9700:15:3711700:03:1218801:09:132300:00:582200:23:04 01:52:03 
11653731FBrenda LeeWashington DC 11700:16:149400:02:5615001:04:0410000:01:2610400:27:33 01:52:10 
11736955FJulie DawleyCulpeper VA 5800:14:2717800:04:0410301:00:4216200:01:5215900:31:29 01:52:32 
11848336FKathy HsuWashington DC 15500:18:1712700:03:179601:00:1317900:02:0412500:28:51 01:52:40 
11949836FRebecca JonesFairfax VA 14500:17:5210600:03:047500:58:177300:01:1516800:32:22 01:52:48 
12031129FJessika BriggsVirginia Beach VA 7000:14:476700:02:3715101:04:1013800:01:3915000:30:04 01:53:15 
12145742FLisa HarfootWashington DC 12200:16:2213500:03:2714801:03:4312400:01:3511500:28:17 01:53:23 
12244739FAllison GreenleafAlexandria VA 13600:16:5918800:04:2212101:02:1516900:01:5711000:28:02 01:53:33 
12322329FSierra WinserColonial Beach VA 3100:13:084800:02:2811501:01:3214200:01:4117000:32:4700:02:0001:53:33 
PlaceBibAgSNAMEcity/stateDQRankSWIMRankT1RankBIKERankT2RankRUNPENALTYTIMEDQ
12421042FStacy WeinaSpringfield VA 10000:15:4616600:03:5513301:03:0619700:02:208400:26:2900:02:0001:53:34 
12532847FColleen CannonFairfax VA 7100:14:5018700:04:208700:59:1518500:02:0917400:33:06 01:53:38 
1269725FMarie RandolphFairfax VA 16500:18:567900:02:4512201:02:1615000:01:4511600:28:18 01:53:59 
12753354FKathleen LarkinArlington VA 14100:17:2312300:03:1511001:01:1012200:01:3515600:30:52 01:54:12 
12813916FFiona SeohBristow VA 10100:15:4619000:04:2315501:04:5016000:01:5110300:27:25 01:54:14 
12921740FLisa WhitbyChantilly VA 20800:24:3015300:03:393700:55:3410300:01:2713400:29:18 01:54:27 
13025138FRenee AlmondUnionville VA 18100:19:5913600:03:2712401:02:216300:01:1310500:27:40 01:54:37 
13145239FKerensa HadleyFairfax VA 9500:15:347100:02:3916801:06:414700:01:0812400:28:42 01:54:41 
13227517FAbby BashamDumfries VA 1900:12:353200:02:1517401:07:38900:00:5016200:31:55 01:55:12 
13347344FStefanie HessionFairfax VA 18300:19:593300:02:1613401:03:063400:01:0312800:28:59 01:55:21 
1343241FStacy McGuireSilver Spring MD 10700:15:5617600:04:0115301:04:268800:01:2214200:29:43 01:55:26 
13544958FCarol GruenburgAlexandria VA 8800:15:2721800:06:0716001:05:0414100:01:4010000:27:16 01:55:32 
13637831FValerie DixWoodbridge VA 6400:14:3610900:03:0511601:01:3417200:02:0018900:34:54 01:56:07 
13746159FElena HeckelmanVirginia Beach VA 15700:18:2320400:05:0210901:01:1017800:02:0413900:29:33 01:56:10 
13815236FKatherine SkellyLeesburg VA 12900:16:3515100:03:3810601:00:587000:01:1518400:33:52 01:56:15 
13954131FChristine LennonLake Placid NY 21500:26:1813300:03:215900:57:1321500:03:077800:26:18 01:56:15 
14020530FJennifer WalrathWashington DC 16600:18:5918000:04:0614001:03:2618000:02:0711100:28:02 01:56:39 
14112846FElizabeth SaleFredericksburg VA 11200:16:026300:02:3312301:02:1713500:01:3818800:34:42 01:57:10 
14253229FJanice KwaWashington DC 14000:17:1217300:04:0012701:02:4011100:01:3016300:31:56 01:57:16 
14323536FCheryl YoungNorfolk VA 18900:20:1420900:05:2411901:01:4015800:01:4912200:28:30 01:57:35 
14423729FPaige YoungArlington VA 19800:21:358900:02:5318001:07:5512300:01:353400:23:41 01:57:37 
14516565FKari SprecherLeesburg VA 15300:18:1313000:03:199301:00:0617300:02:0118500:34:03 01:57:40 
14627335FMelanie BarronFredericksburg VA 20500:23:4820200:04:546000:57:1615900:01:4914900:30:03 01:57:48 
14755628FAllison LussierArlington VA 4300:13:418000:02:4619301:10:3915100:01:4513700:29:31 01:58:20 
14852643FKatrina KoomeyArlington VA 17800:19:3216300:03:5111701:01:3620900:02:4815400:30:41 01:58:25 
14933842FClaudia CentenoAshburn VA 19300:20:577600:02:4317501:07:403100:01:027700:26:17 01:58:36 
1503628FHeather MeisterGermantown MD 14800:18:0221400:05:4514101:03:2810700:01:2914800:30:02 01:58:44 
1514954FLucy MooreMcLean VA 12400:16:2514700:03:3619401:10:4718200:02:097000:25:57 01:58:52 
15229330FEmily BlakemoreAlexandria VA 15600:18:1815200:03:3813601:03:0716500:01:5416400:32:04 01:58:59 
15318853FMary TognarelliRichmond VA 14200:17:2415800:03:4612501:02:3016600:01:5517900:33:27 01:59:00 
15446332FJessica HegmannChevy Chase MD 12500:16:2616800:03:5613901:03:2320000:02:2618000:33:27 01:59:37 
PlaceBibAgSNAMEcity/stateDQRankSWIMRankT1RankBIKERankT2RankRUNPENALTYTIMEDQ
15540926FAnne ForneyArlington VA 8000:15:128200:02:4715801:04:589700:01:2519300:35:19 01:59:39 
1566534FVicki NguyenReston VA 20300:22:3313400:03:2614601:03:424500:01:0712700:28:57 01:59:42 
1572235FKelly MastersWinchester VA 8300:15:1920800:05:1618401:08:3814800:01:4513200:29:08 02:00:04 
15817941FJohanna TaddikenArlington VA 10200:15:515800:02:315300:57:019200:01:2421700:43:25 02:00:10 
15944048FKay GowAlexandria VA 17000:19:1212100:03:1417301:07:2110600:01:2813100:29:07 02:00:20 
16038739FSandy EliaKing George VA 11500:16:097200:02:3920401:12:2919500:02:1610900:28:00 02:01:31 
16159346FBritta DempseySterling VA 10600:15:5514200:03:3116501:06:0221200:02:5918200:33:39 02:02:03 
16231033FLauren BriggermanArlington VA 17900:19:3716000:03:4616901:06:4920100:02:2813600:29:30 02:02:08 
16320440FCaren WalkerFredericksburg VA 14400:17:5010500:03:0319001:09:4514000:01:4014400:29:55 02:02:12 
16414052FSusan SernaAlexandria VA 9600:15:3516900:03:5816601:06:1816100:01:5219200:35:16 02:02:57 
16524428FSara AbbeLunchburg VA 8100:15:1511900:03:1316701:06:2510200:01:2620000:36:47 02:03:05 
1662036FRachel MassengillPowhatan VA 20900:24:349600:02:5616401:05:4820800:02:459700:27:12 02:03:14 
16721135FMartine WeinholdVienna VA 11800:16:1714500:03:3517901:07:5117400:02:0118700:34:11 02:03:52 
16813756FMelinda ScraffordClifton VA 20200:22:3119500:04:2811401:01:3121400:03:0517300:33:03 02:04:37 
16934729FSarah CobleMarshall VA 19500:21:0319300:04:2717201:07:0818600:02:1015200:30:22 02:05:08 
17014548FStephanie Shea-O'ConnorArlington VA 19000:20:2317900:04:0617101:06:5317600:02:0316100:31:50 02:05:13 
17127040FJana BarnesManakin-Sabot VA 17700:19:3012900:03:1917801:07:4811300:01:3117600:33:12 02:05:18 
17222427FStefanie WinzelerWashington DC 16700:19:0319400:04:2720701:13:5919100:02:116600:25:44 02:05:22 
17346735FShannon HeplerWashington DC 20600:23:4821500:05:4715901:05:039000:01:2314600:29:59 02:05:58 
17442243FLisa GarciaAlexandria VA 22100:33:1716700:03:5610401:00:4416400:01:538000:26:19 02:06:06 
17552944FPatricia KramerStafford VA 18200:19:5919800:04:3518201:07:5912000:01:3416600:32:04 02:06:10 
17640843FLisa FolbCentreville VA 18800:20:0719900:04:4017701:07:4318300:02:0916000:31:46 02:06:22 
17723149FMargaret WrightAlexandria VA 20000:22:1921300:05:3815201:04:1318800:02:1117200:33:01 02:07:19 
17844532FJulie GreenAlexandria VA 18500:20:0020500:05:0319101:09:5116700:01:5615300:30:35 02:07:23 
17923646FMary YoungSaint Charles MO 5400:14:1318200:04:1021301:15:5522000:03:3114100:29:42 02:07:28 
18047940FKathleen HinmanAlexandria VA 21200:25:2520600:05:0516301:05:4221800:03:1311200:28:08 02:07:32 
1818153FSusan PayneSpringfield VA 16200:18:4718100:04:0914901:04:0121000:02:4920600:37:52 02:07:36 
18251014FCasey KendallOak Hill VA 14900:18:0517200:04:0021201:15:366400:01:1312900:29:04 02:07:56 
18328939FBridget BirdCharles Town WV 12100:16:2116100:03:4718901:09:2620500:02:3119400:36:16 02:08:19 
18442845FPatty GlassManassas Park VA 12800:16:328500:02:4914201:03:2919200:02:1321600:43:21 02:08:21 
18531457FCarol BrooksReston VA 20100:22:2720300:04:5414401:03:3420400:02:3019000:35:02 02:08:27 
PlaceBibAgSNAMEcity/stateDQRankSWIMRankT1RankBIKERankT2RankRUNPENALTYTIMEDQ
18614144FBel SerockiArlington VA 19100:20:2511800:03:1219601:10:5211700:01:3417700:33:19 02:09:20 
1871140FMarie MalaveSilver Spring MD 17200:19:1320100:04:4816101:05:1621300:02:5920400:37:30 02:09:45 
18822128FKatherine WilmesAlexandria VA 18700:20:0413900:03:2818301:08:2515300:01:4719700:36:26 02:10:08 
18930447FDiana BragunierPort Tobacco MD 17100:19:1320000:04:4420001:12:0817700:02:0416700:32:05 02:10:12 
19047034FKatie HeroldFairfax VA 11300:16:0815700:03:4619901:12:0115200:01:4620300:37:19 02:10:57 
19118134FJessica TannerArlington VA 21700:28:1014300:03:3316201:05:3820200:02:2815800:31:28 02:11:15 
19243141FCheryl GnehmArlington VA 15900:18:4012800:03:1718501:08:3810500:01:2820900:39:20 02:11:22 
19349630FKristen JohnsonRockville MD 17600:19:2621600:05:5320901:14:1211600:01:3315100:30:22 02:11:25 
1947729FMegan PalaciosWashington DC 16400:18:5521000:05:2919501:10:4822200:03:4917800:33:20 02:12:19 
19557944FLeslie Fitzgerald DollAlexandria VA 19900:21:5419200:04:2518101:07:5714700:01:4419600:36:25 02:12:24 
19647138FChristine HessArlington VA 13400:16:5221200:05:3819201:10:2018900:02:1120500:37:38 02:12:37 
19712043FMelissa RosenRichmond VA 14600:17:5514800:03:3620801:13:599100:01:2420100:36:48 02:13:40 
1988333FLaura PearsonCentreville VA 11400:16:0814900:03:3720101:12:1120600:02:3321100:40:03 02:14:30 
19958434FDebbie PedersonAlexandria VA 6200:14:3415500:03:4120601:13:388600:01:2121200:41:30 02:14:42 
2004743FAudrey MooreFairfax VA 18000:19:394300:02:2521701:19:0212900:01:3717100:32:48 02:15:29 
20129548FLisa BooromWoodbridge VA 15400:18:1614100:03:3018601:08:5218100:02:0721500:42:57 02:15:38 
20221951FDiana WilcoxLorton VA 19600:21:0413700:03:2817601:07:429800:01:2521400:42:02 02:15:39 
20351747FJennifer KimSpringfield VA 22000:31:2815600:03:4215701:04:5817100:01:5918100:33:35 02:15:40 
20433930FMargaret ChadbournWashington DC 3500:13:284900:02:2822301:32:4114300:01:428900:26:47 02:17:03 
20549434FHemal JhaveriAlexandria VA 21100:25:1220700:05:1421601:17:493600:01:0312000:28:28 02:17:45 
20653955FKaren LehSterling VA 12700:16:2819600:04:3221501:17:0621700:03:1120200:37:00 02:18:15 
20722757FDeb WolfeCentreville VA 21600:27:2117000:03:5819801:11:2019300:02:1318300:33:44 02:18:34 
20846833FKimberly HerbertSpringfield VA 18400:20:0018400:04:1320301:12:2619900:02:2521000:39:43 02:18:45 
20948940FRebecca Irwin KennedyBethesda MD 21400:26:1416200:03:5018701:09:0919400:02:1520700:38:11 02:19:36 
21033025FNicole CarlottoWashington DC 17300:19:1718900:04:2320501:12:3216300:01:5321300:42:01 02:20:03 
21137335FKelly DemarchisWashington DC 20400:22:4917700:04:0121001:14:3318400:02:0919900:36:43 02:20:14 
21243664FMarianna GoodingMontclair VA 20700:24:1822100:06:3620201:12:1418700:02:1019500:36:17 02:21:34 
21334252FWendy ChristoffersonAlexandria VA 21000:24:4021100:05:3522101:24:578400:01:2016900:32:44 02:29:15 
21454951FLinda LitchfieldWarrenton VA 21300:26:0522200:06:3721401:16:0821900:03:1520800:38:27 02:30:31 
21538432FAlison EddyArlington VA 19400:20:5819100:04:2521101:15:2213300:01:3821800:51:32 02:33:53 
21658250FSusie FisherArlington VA 21800:29:1322000:06:3322001:20:5821600:03:0819100:35:08 02:34:56 
PlaceBibAgSNAMEcity/stateDQRankSWIMRankT1RankBIKERankT2RankRUNPENALTYTIMEDQ
21729233FElizabeth BlaisFredericksburg VA 21900:30:0016400:03:5322201:25:2113900:01:3919800:36:40 02:37:32 
21831828FKatherine BryantWashington DC     19701:10:5813100:01:3712600:28:55NFDNF 
21941424FAllison FrattoWashington DC 10900:15:5811500:03:0713101:03:0012500:01:36  00:02:00  
22051853FUnhee KimRockville MD     21901:20:3622100:03:41  NF  
22144352FSiobhan GraysonAlexandria VA 22200:34:3121900:06:1122401:40:46    NF  
22255525FJenna LowensteinWashington DC           NF  
223841FMonica RobbersArlington VA 1100:12:051700:01:56100:48:141600:00:54  NF  
22455416FEmily LowellCatlett VA 8500:15:2421700:05:5521801:20:0619800:02:23  NF  
22532732FMichelle CampbellWashington DC 19700:21:2818600:04:1914701:03:42       

** Results are for the private use of participants and are the Intellectual Property of Set Up Events. Unauthorized use of these results is prohibited.